createdAt,value
2017-11-28T00:00:51.698Z,91.76
2017-11-28T00:03:26.824Z,91.71
2017-11-28T00:06:01.799Z,91.72
2017-11-28T00:08:36.274Z,91.53
2017-11-28T00:11:11.636Z,91.17
2017-11-28T00:13:46.152Z,91.33
2017-11-28T00:16:21.084Z,91.43
2017-11-28T00:18:55.927Z,91.32
2017-11-28T00:21:30.655Z,91.21
2017-11-28T00:24:05.372Z,91.25
2017-11-28T00:26:40.224Z,91.43
2017-11-28T00:29:15.079Z,91.24
2017-11-28T00:31:50.197Z,91.19
2017-11-28T00:34:25.427Z,91.57
2017-11-28T00:37:00.051Z,91.76
2017-11-28T00:39:34.505Z,91.83
2017-11-28T00:42:08.785Z,91.96
2017-11-28T00:44:44.240Z,91.90
2017-11-28T00:47:18.495Z,91.79
2017-11-28T00:49:53.269Z,91.83
2017-11-28T00:52:28.176Z,92.02
2017-11-28T00:55:02.847Z,92.05
2017-11-28T00:57:37.368Z,92.46
2017-11-28T01:00:12.711Z,92.53
2017-11-28T01:02:47.600Z,92.55
2017-11-28T01:05:22.900Z,92.75
2017-11-28T01:07:57.828Z,92.66
2017-11-28T01:10:32.663Z,92.42
2017-11-28T01:13:07.404Z,92.26
2017-11-28T01:15:41.888Z,92.32
2017-11-28T01:18:16.317Z,92.43
2017-11-28T01:20:51.248Z,92.52
2017-11-28T01:23:26.511Z,92.62
2017-11-28T01:26:01.103Z,92.66
2017-11-28T01:28:35.604Z,92.76
2017-11-28T01:31:10.488Z,92.53
2017-11-28T01:33:45.386Z,92.54
2017-11-28T01:36:20.144Z,92.58
2017-11-28T01:38:54.872Z,92.64
2017-11-28T01:41:29.788Z,92.43
2017-11-28T01:44:04.363Z,92.33
2017-11-28T01:46:39.383Z,92.43
2017-11-28T01:49:14.262Z,92.52
2017-11-28T01:51:49.215Z,92.54
2017-11-28T01:54:24.255Z,92.67
2017-11-28T01:56:59.170Z,92.72
2017-11-28T01:59:33.829Z,92.51
2017-11-28T02:02:08.204Z,92.50
2017-11-28T02:04:42.571Z,92.17
2017-11-28T02:07:17.155Z,92.29
2017-11-28T02:09:51.871Z,91.89
2017-11-28T02:12:26.420Z,91.68
2017-11-28T02:15:01.288Z,91.67
2017-11-28T02:17:35.795Z,91.53
2017-11-28T02:20:10.573Z,91.63
2017-11-28T02:22:45.172Z,91.41
2017-11-28T02:25:19.360Z,91.57
2017-11-28T02:27:54.258Z,91.65
2017-11-28T02:30:28.751Z,91.65
2017-11-28T02:33:03.564Z,91.54
2017-11-28T02:35:38.374Z,91.69
2017-11-28T02:38:13.272Z,91.57
2017-11-28T02:40:59.224Z,91.35
2017-11-28T02:43:34.305Z,91.33
2017-11-28T02:46:08.418Z,91.42
2017-11-28T02:48:44.876Z,91.46
2017-11-28T02:51:19.479Z,91.36
2017-11-28T02:53:54.376Z,91.31
2017-11-28T02:56:29.095Z,91.35
2017-11-28T02:59:03.528Z,91.47
2017-11-28T03:01:42.632Z,91.69
2017-11-28T03:04:17.491Z,91.58
2017-11-28T03:06:52.352Z,91.71
2017-11-28T03:09:47.247Z,91.70
2017-11-28T03:12:32.632Z,91.55
2017-11-28T03:15:08.021Z,91.65
2017-11-28T03:17:42.348Z,91.66
2017-11-28T03:20:18.347Z,91.61
2017-11-28T03:23:08.548Z,91.52
2017-11-28T03:25:42.676Z,91.39
2017-11-28T03:28:37.867Z,91.41
2017-11-28T03:31:16.061Z,91.18
2017-11-28T03:33:51.791Z,91.08
2017-11-28T03:36:26.147Z,91.05
2017-11-28T03:39:00.971Z,91.08
2017-11-28T03:41:35.987Z,91.10
2017-11-28T03:44:18.927Z,91.26
2017-11-28T03:46:53.136Z,91.32
2017-11-28T03:49:27.219Z,91.17
2017-11-28T03:52:02.180Z,91.20
2017-11-28T03:54:36.751Z,91.25
2017-11-28T03:57:11.544Z,91.25
2017-11-28T03:59:46.419Z,91.39
2017-11-28T04:02:20.602Z,91.20
2017-11-28T04:04:54.882Z,91.04
2017-11-28T04:07:29.320Z,90.94
2017-11-28T04:10:04.160Z,90.71
2017-11-28T04:12:39.159Z,90.57
2017-11-28T04:15:13.992Z,90.23
2017-11-28T04:17:49.028Z,90.12
2017-11-28T04:20:23.449Z,90.19
2017-11-28T04:22:58.263Z,90.32
2017-11-28T04:25:32.579Z,90.48
2017-11-28T04:28:07.711Z,90.50
2017-11-28T04:30:41.816Z,90.56
2017-11-28T04:33:16.896Z,90.62
2017-11-28T04:35:51.868Z,90.59
2017-11-28T04:38:26.489Z,90.68
2017-11-28T04:41:01.211Z,90.65
2017-11-28T04:43:36.010Z,90.58
2017-11-28T04:46:10.834Z,90.55
2017-11-28T04:48:45.275Z,90.78
2017-11-28T04:51:20.575Z,90.77
2017-11-28T04:53:55.089Z,90.81
2017-11-28T04:56:29.695Z,90.82
2017-11-28T04:59:04.440Z,90.85
2017-11-28T05:01:39.349Z,90.79
2017-11-28T05:04:13.939Z,90.78
2017-11-28T05:06:48.683Z,90.95
2017-11-28T05:09:23.555Z,90.86
2017-11-28T05:11:58.423Z,90.70
2017-11-28T05:14:33.187Z,90.74
2017-11-28T05:17:07.402Z,90.76
2017-11-28T05:19:42.254Z,90.53
2017-11-28T05:22:17.238Z,90.40
2017-11-28T05:24:52.075Z,90.47
2017-11-28T05:27:26.772Z,90.74
2017-11-28T05:30:01.423Z,90.71
2017-11-28T05:32:35.911Z,90.90
2017-11-28T05:35:11.185Z,91.03
2017-11-28T05:37:45.354Z,90.92
2017-11-28T05:40:19.586Z,90.74
2017-11-28T05:42:53.974Z,90.58
2017-11-28T05:45:28.824Z,90.55
2017-11-28T05:48:03.635Z,90.57
2017-11-28T05:50:38.490Z,90.45
2017-11-28T05:53:13.327Z,90.55
2017-11-28T05:55:48.291Z,90.43
2017-11-28T05:58:23.069Z,90.24
2017-11-28T06:01:08.498Z,90.09
2017-11-28T06:03:42.549Z,89.91
2017-11-28T06:06:17.461Z,89.69
2017-11-28T06:08:52.319Z,89.54
2017-11-28T06:11:26.798Z,89.52
2017-11-28T06:14:01.564Z,89.65
2017-11-28T06:16:36.234Z,89.54
2017-11-28T06:19:10.834Z,89.47
2017-11-28T06:21:44.747Z,89.60
2017-11-28T06:24:18.501Z,89.58
2017-11-28T06:26:52.650Z,89.49
2017-11-28T06:29:27.141Z,89.50
2017-11-28T06:32:01.582Z,89.60
2017-11-28T06:34:35.633Z,89.64
2017-11-28T06:37:10.578Z,89.58
2017-11-28T06:39:44.699Z,89.71
2017-11-28T06:42:19.950Z,89.49
2017-11-28T06:44:54.202Z,89.58
2017-11-28T06:47:29.066Z,89.56
2017-11-28T06:50:03.983Z,89.62
2017-11-28T06:52:38.542Z,89.51
2017-11-28T06:55:12.722Z,89.63
2017-11-28T06:57:47.449Z,89.65
2017-11-28T07:00:21.901Z,89.65
2017-11-28T07:02:55.793Z,89.41
2017-11-28T07:05:30.765Z,89.16
2017-11-28T07:08:05.626Z,89.18
2017-11-28T07:10:49.907Z,89.32
2017-11-28T07:13:24.237Z,89.49
2017-11-28T07:15:59.033Z,89.62
2017-11-28T07:18:33.966Z,89.48
2017-11-28T07:21:08.666Z,89.51
2017-11-28T07:23:43.409Z,89.61
2017-11-28T07:26:18.251Z,89.53
2017-11-28T07:28:53.121Z,89.68
2017-11-28T07:31:27.947Z,89.58
2017-11-28T07:34:02.799Z,89.55
2017-11-28T07:36:37.775Z,89.19
2017-11-28T07:39:12.738Z,89.25
2017-11-28T07:41:47.742Z,89.08
2017-11-28T07:44:22.300Z,89.19
2017-11-28T07:46:57.205Z,89.28
2017-11-28T07:49:32.041Z,89.30
2017-11-28T07:52:06.234Z,89.38
2017-11-28T07:54:40.894Z,89.31
2017-11-28T07:57:15.735Z,89.19
2017-11-28T07:59:50.686Z,88.98
2017-11-28T08:02:25.474Z,89.08
2017-11-28T08:05:00.303Z,88.88
2017-11-28T08:07:35.032Z,88.94
2017-11-28T08:10:09.781Z,88.86
2017-11-28T08:12:44.617Z,88.57
2017-11-28T08:15:19.132Z,88.71
2017-11-28T08:17:53.681Z,88.51
2017-11-28T08:20:28.470Z,88.44
2017-11-28T08:23:03.147Z,88.48
2017-11-28T08:25:37.637Z,88.54
2017-11-28T08:28:12.448Z,88.47
2017-11-28T08:30:46.983Z,88.37
2017-11-28T08:33:21.834Z,88.14
2017-11-28T08:35:55.770Z,88.17
2017-11-28T08:38:30.594Z,88.11
2017-11-28T08:41:05.312Z,88.36
2017-11-28T08:43:40.094Z,88.42
2017-11-28T08:46:14.874Z,88.58
2017-11-28T08:48:49.477Z,88.58
2017-11-28T08:51:24.250Z,88.48
2017-11-28T08:53:59.034Z,88.19
2017-11-28T08:56:33.670Z,88.33
2017-11-28T08:59:08.490Z,87.91
2017-11-28T09:01:43.249Z,87.45
2017-11-28T09:04:18.486Z,87.71
2017-11-28T09:06:54.193Z,87.78
2017-11-28T09:09:28.782Z,87.78
2017-11-28T09:12:03.755Z,87.93
2017-11-28T09:14:38.791Z,88.26
2017-11-28T09:17:13.480Z,88.06
2017-11-28T09:19:48.157Z,87.88
2017-11-28T09:22:22.994Z,87.98
2017-11-28T09:24:57.810Z,87.80
2017-11-28T09:27:32.628Z,88.23
2017-11-28T09:30:07.327Z,87.55
2017-11-28T09:32:42.101Z,86.63
2017-11-28T09:35:16.321Z,86.33
2017-11-28T09:37:51.076Z,85.33
2017-11-28T09:40:25.877Z,84.60
2017-11-28T09:43:00.926Z,84.02
2017-11-28T09:45:35.049Z,83.75
2017-11-28T09:48:10.049Z,84.68
2017-11-28T09:50:44.714Z,84.80
2017-11-28T09:53:19.521Z,84.72
2017-11-28T09:55:54.218Z,84.76
2017-11-28T09:58:29.015Z,85.06
2017-11-28T10:01:03.791Z,85.20
2017-11-28T10:03:38.638Z,84.78
2017-11-28T10:06:13.506Z,84.42
2017-11-28T10:08:47.970Z,84.25
2017-11-28T10:11:22.448Z,84.38
2017-11-28T10:13:57.382Z,84.77
2017-11-28T10:16:32.278Z,84.78
2017-11-28T10:19:06.831Z,85.41
2017-11-28T10:21:41.221Z,85.67
2017-11-28T10:24:16.061Z,85.04
2017-11-28T10:26:50.874Z,84.46
2017-11-28T10:29:25.641Z,83.55
2017-11-28T10:32:00.180Z,82.77
2017-11-28T10:34:34.893Z,82.22
2017-11-28T10:37:09.745Z,82.37
2017-11-28T10:39:44.476Z,82.25
2017-11-28T10:42:19.183Z,82.03
2017-11-28T10:44:54.119Z,82.06
2017-11-28T10:47:28.871Z,82.00
2017-11-28T10:50:03.684Z,82.41
2017-11-28T10:52:38.108Z,82.46
2017-11-28T10:55:13.032Z,82.28
2017-11-28T10:57:47.859Z,83.07
2017-11-28T11:00:22.664Z,83.51
2017-11-28T11:02:57.511Z,83.54
2017-11-28T11:05:32.467Z,82.96
2017-11-28T11:08:07.535Z,83.56
2017-11-28T11:10:41.937Z,83.73
2017-11-28T11:13:16.727Z,83.61
2017-11-28T11:15:50.784Z,84.12
2017-11-28T11:18:25.594Z,84.24
2017-11-28T11:21:00.636Z,84.51
2017-11-28T11:23:35.298Z,84.19
2017-11-28T11:26:10.031Z,83.98
2017-11-28T11:28:44.783Z,83.23
2017-11-28T11:31:20.115Z,81.95
2017-11-28T11:33:54.672Z,81.54
2017-11-28T11:36:29.303Z,81.20
2017-11-28T11:39:03.167Z,80.28
2017-11-28T11:41:37.832Z,79.84
2017-11-28T11:44:12.696Z,79.95
2017-11-28T11:46:47.415Z,80.06
2017-11-28T11:49:22.315Z,80.40
2017-11-28T11:51:57.056Z,80.82
2017-11-28T11:54:31.816Z,80.60
2017-11-28T11:57:06.543Z,80.64
2017-11-28T11:59:41.416Z,80.85
2017-11-28T12:02:15.978Z,81.27
2017-11-28T12:04:51.305Z,81.60
2017-11-28T12:07:25.946Z,82.05
2017-11-28T12:10:00.627Z,81.71
2017-11-28T12:12:35.408Z,81.92
2017-11-28T12:15:10.452Z,81.77
2017-11-28T12:17:45.375Z,82.47
2017-11-28T12:20:20.200Z,83.50
2017-11-28T12:22:55.035Z,83.49
2017-11-28T12:25:29.867Z,82.87
2017-11-28T12:28:03.974Z,83.06
2017-11-28T12:30:38.442Z,82.81
2017-11-28T12:33:13.357Z,82.44
2017-11-28T12:35:48.371Z,82.48
2017-11-28T12:38:23.229Z,82.39
2017-11-28T12:40:57.844Z,82.13
2017-11-28T12:43:32.387Z,82.18
2017-11-28T12:46:07.115Z,81.88
2017-11-28T12:48:42.018Z,81.99
2017-11-28T12:51:16.800Z,81.94
2017-11-28T12:53:51.548Z,81.56
2017-11-28T12:56:26.254Z,81.25
2017-11-28T12:59:00.992Z,81.17
2017-11-28T13:01:35.947Z,81.03
2017-11-28T13:04:10.523Z,81.35
2017-11-28T13:06:45.427Z,81.21
2017-11-28T13:09:20.259Z,81.23
2017-11-28T13:11:55.131Z,80.88
2017-11-28T13:14:29.268Z,80.46
2017-11-28T13:17:04.025Z,80.53
2017-11-28T13:19:39.256Z,80.89
2017-11-28T13:22:13.828Z,81.36
2017-11-28T13:24:48.606Z,81.92
2017-11-28T13:27:23.235Z,81.55
2017-11-28T13:29:57.790Z,81.78
2017-11-28T13:32:32.586Z,81.17
2017-11-28T13:35:07.351Z,81.34
2017-11-28T13:37:42.358Z,80.91
2017-11-28T13:40:17.085Z,81.18
2017-11-28T13:42:52.310Z,80.56
2017-11-28T13:45:26.478Z,80.94
2017-11-28T13:48:01.220Z,80.67
2017-11-28T13:50:36.294Z,81.16
2017-11-28T13:53:11.019Z,81.09
2017-11-28T13:55:45.347Z,81.08
2017-11-28T13:58:20.211Z,80.57
2017-11-28T14:00:54.624Z,80.68
2017-11-28T14:03:29.707Z,80.49
2017-11-28T14:06:04.348Z,80.88
2017-11-28T14:08:39.543Z,81.31
2017-11-28T14:11:14.678Z,81.65
2017-11-28T14:13:49.459Z,81.73
2017-11-28T14:16:24.355Z,81.74
2017-11-28T14:18:58.895Z,81.89
2017-11-28T14:21:38.967Z,82.10
2017-11-28T14:24:22.831Z,81.96
2017-11-28T14:27:00.720Z,82.19
2017-11-28T14:29:46.083Z,82.31
2017-11-28T14:32:25.827Z,82.29
2017-11-28T14:35:00.605Z,82.24
2017-11-28T14:37:34.579Z,82.10
2017-11-28T14:40:08.632Z,82.14
2017-11-28T14:42:44.283Z,82.11
2017-11-28T14:45:22.728Z,82.19
2017-11-28T14:47:56.704Z,81.69
2017-11-28T14:56:36.831Z,82.36
2017-11-28T14:59:16.702Z,82.47
2017-11-28T15:01:51.509Z,82.54
2017-11-28T15:04:28.692Z,82.38
2017-11-28T15:07:03.896Z,82.56
2017-11-28T15:09:44.082Z,82.52
2017-11-28T15:15:32.848Z,83.14
2017-11-28T15:18:12.774Z,83.28
2017-11-28T15:20:51.420Z,83.49
2017-11-28T15:23:27.586Z,83.58
2017-11-28T15:26:22.835Z,83.66
2017-11-28T15:28:57.859Z,83.74
2017-11-28T15:31:32.470Z,83.98
2017-11-28T15:34:07.487Z,84.13
2017-11-28T15:36:41.793Z,84.33
2017-11-28T15:39:16.669Z,84.65
2017-11-28T15:41:51.793Z,85.05
2017-11-28T15:44:26.501Z,85.14
2017-11-28T15:47:01.219Z,85.36
2017-11-28T15:49:35.978Z,85.50
2017-11-28T15:52:11.006Z,85.56
2017-11-28T15:54:45.698Z,85.68
2017-11-28T15:57:20.429Z,85.77
2017-11-28T15:59:55.457Z,85.76
2017-11-28T16:02:30.043Z,85.75
2017-11-28T16:05:04.682Z,85.69
2017-11-28T16:07:39.345Z,85.67
2017-11-28T16:10:14.183Z,85.54
2017-11-28T16:12:48.862Z,85.37
2017-11-28T16:15:23.260Z,85.17
2017-11-28T16:17:58.175Z,85.07
2017-11-28T16:20:32.979Z,84.97
2017-11-28T16:23:07.659Z,84.69
2017-11-28T16:25:42.238Z,84.77
2017-11-28T16:28:17.366Z,84.62
2017-11-28T16:30:52.570Z,84.65
2017-11-28T16:33:27.495Z,84.50
2017-11-28T16:36:02.178Z,84.60
2017-11-28T16:38:36.703Z,84.74
2017-11-28T16:41:11.502Z,84.86
2017-11-28T16:43:46.071Z,85.17
2017-11-28T16:46:20.614Z,85.45
2017-11-28T16:48:55.310Z,85.82
2017-11-28T16:51:30.077Z,86.21
2017-11-28T16:54:04.339Z,86.49
2017-11-28T16:56:39.120Z,86.66
2017-11-28T16:59:13.731Z,86.72
2017-11-28T17:01:48.482Z,86.86
2017-11-28T17:04:23.301Z,87.00
2017-11-28T17:06:57.590Z,87.33
2017-11-28T17:09:32.150Z,87.47
2017-11-28T17:12:06.909Z,87.54
2017-11-28T17:14:41.625Z,87.55
2017-11-28T17:17:16.741Z,87.80
2017-11-28T17:19:50.985Z,88.06
2017-11-28T17:22:25.785Z,88.29
2017-11-28T17:25:00.197Z,88.39
2017-11-28T17:27:34.541Z,88.62
2017-11-28T17:30:09.366Z,88.95
2017-11-28T17:32:43.761Z,89.27
2017-11-28T17:35:18.597Z,89.52
2017-11-28T17:37:53.150Z,89.58
2017-11-28T17:40:27.929Z,89.59
2017-11-28T17:43:02.678Z,89.93
2017-11-28T17:45:37.213Z,90.18
2017-11-28T17:48:11.819Z,90.33
2017-11-28T17:50:46.754Z,90.68
2017-11-28T17:53:21.678Z,90.72
2017-11-28T17:55:56.465Z,90.79
2017-11-28T17:58:30.961Z,91.22
2017-11-28T18:01:05.596Z,91.55
2017-11-28T18:03:40.420Z,91.75
2017-11-28T18:06:15.054Z,91.82
2017-11-28T18:08:50.094Z,92.03
2017-11-28T18:11:24.621Z,91.89
2017-11-28T18:13:59.433Z,91.86
2017-11-28T18:16:34.066Z,91.82
2017-11-28T18:19:08.950Z,91.64
2017-11-28T18:21:43.725Z,91.61
2017-11-28T18:24:18.190Z,91.55
2017-11-28T18:26:52.898Z,91.60
2017-11-28T18:29:27.898Z,91.73
2017-11-28T18:32:02.361Z,91.95
2017-11-28T18:34:37.052Z,92.04
2017-11-28T18:37:11.577Z,92.18
2017-11-28T18:39:46.043Z,92.00
2017-11-28T18:42:20.833Z,92.03
2017-11-28T18:44:55.346Z,92.24
2017-11-28T18:47:29.862Z,92.18
2017-11-28T18:50:04.797Z,92.30
2017-11-28T18:52:39.218Z,92.16
2017-11-28T18:55:13.965Z,92.15
2017-11-28T18:57:48.655Z,92.02
2017-11-28T19:00:25.813Z,92.11
2017-11-28T19:03:00.035Z,91.83
2017-11-28T19:05:35.032Z,91.71
2017-11-28T19:08:09.699Z,91.76
2017-11-28T19:10:44.389Z,91.68
2017-11-28T19:13:19.428Z,91.79
2017-11-28T19:15:54.954Z,91.83
2017-11-28T19:18:29.955Z,91.96
2017-11-28T19:21:04.753Z,91.90
2017-11-28T19:23:39.460Z,91.93
2017-11-28T19:26:14.185Z,91.89
2017-11-28T19:28:48.569Z,92.01
2017-11-28T19:31:23.341Z,92.03
2017-11-28T19:33:58.193Z,92.01
2017-11-28T19:36:32.977Z,92.08
2017-11-28T19:39:07.650Z,92.20
2017-11-28T19:41:42.394Z,92.08
2017-11-28T19:44:17.092Z,92.04
2017-11-28T19:46:51.685Z,92.03
2017-11-28T19:49:26.334Z,91.86
2017-11-28T19:52:00.951Z,91.87
2017-11-28T19:54:35.913Z,91.82
2017-11-28T19:57:10.606Z,91.88
2017-11-28T19:59:45.385Z,91.97
2017-11-28T20:02:20.447Z,91.89
2017-11-28T20:04:55.647Z,91.68
2017-11-28T20:07:30.166Z,91.50
2017-11-28T20:10:04.971Z,91.52
2017-11-28T20:12:39.902Z,91.41
2017-11-28T20:15:14.469Z,91.57
2017-11-28T20:17:49.226Z,91.57
2017-11-28T20:20:23.651Z,91.86
2017-11-28T20:22:58.461Z,91.92
2017-11-28T20:25:33.270Z,92.26
2017-11-28T20:28:08.061Z,92.52
2017-11-28T20:30:42.746Z,92.53
2017-11-28T20:33:16.922Z,92.38
2017-11-28T20:35:51.749Z,92.68
2017-11-28T20:38:26.498Z,92.89
2017-11-28T20:41:01.129Z,92.85
2017-11-28T20:43:35.932Z,92.83
2017-11-28T20:46:10.410Z,92.77
2017-11-28T20:48:44.994Z,92.80
2017-11-28T20:51:20.166Z,92.73
2017-11-28T20:53:55.254Z,92.79
2017-11-28T20:56:30.095Z,92.98
2017-11-28T20:59:04.677Z,93.04
2017-11-28T21:01:39.208Z,93.21
2017-11-28T21:04:14.157Z,93.18
2017-11-28T21:06:48.833Z,93.40
2017-11-28T21:09:23.521Z,93.64
2017-11-28T21:11:58.113Z,93.70
2017-11-28T21:14:32.769Z,93.83
2017-11-28T21:17:07.626Z,94.10
2017-11-28T21:19:42.237Z,94.02
2017-11-28T21:22:16.967Z,93.95
2017-11-28T21:24:51.820Z,93.99
2017-11-28T21:27:26.631Z,93.92
2017-11-28T21:30:01.454Z,93.78
2017-11-28T21:32:36.081Z,93.87
2017-11-28T21:35:10.898Z,93.61
2017-11-28T21:37:45.452Z,93.56
2017-11-28T21:40:20.110Z,93.47
2017-11-28T21:42:54.715Z,93.42
2017-11-28T21:45:29.343Z,93.51
2017-11-28T21:48:04.014Z,93.32
2017-11-28T21:50:38.777Z,93.46
2017-11-28T21:53:13.534Z,93.53
2017-11-28T21:55:48.458Z,93.73
2017-11-28T21:58:23.253Z,93.93
2017-11-28T22:00:58.346Z,93.86
2017-11-28T22:03:33.062Z,93.91
2017-11-28T22:06:07.821Z,93.82
2017-11-28T22:08:42.545Z,93.71
2017-11-28T22:11:17.128Z,93.62
2017-11-28T22:13:51.826Z,93.53
2017-11-28T22:16:26.575Z,93.27
2017-11-28T22:19:01.285Z,93.27
2017-11-28T22:21:35.838Z,93.16
2017-11-28T22:24:10.568Z,93.05
2017-11-28T22:26:45.350Z,93.22
2017-11-28T22:29:20.478Z,93.22
2017-11-28T22:31:55.409Z,93.17
2017-11-28T22:34:29.882Z,93.28
2017-11-28T22:37:04.758Z,93.50
2017-11-28T22:39:39.453Z,93.41
2017-11-28T22:42:14.134Z,93.53
2017-11-28T22:44:49.252Z,93.55
2017-11-28T22:47:24.022Z,93.77
2017-11-28T22:49:58.793Z,93.77
2017-11-28T22:52:33.710Z,93.89
2017-11-28T22:55:08.402Z,93.82
2017-11-28T22:57:43.226Z,93.89
2017-11-28T23:00:17.960Z,93.75
2017-11-28T23:02:53.124Z,93.89
2017-11-28T23:05:27.542Z,93.92
2017-11-28T23:08:02.373Z,93.95
2017-11-28T23:10:37.046Z,93.97
2017-11-28T23:13:11.743Z,94.10
2017-11-28T23:15:46.351Z,94.15
2017-11-28T23:18:21.205Z,94.12
2017-11-28T23:20:55.885Z,94.13
2017-11-28T23:23:30.655Z,94.23
2017-11-28T23:26:05.390Z,94.11
2017-11-28T23:28:40.020Z,94.00
2017-11-28T23:31:14.833Z,93.86
2017-11-28T23:33:49.785Z,94.05
2017-11-28T23:36:24.607Z,94.18
2017-11-28T23:38:59.439Z,94.08
2017-11-28T23:41:34.252Z,93.97
2017-11-28T23:44:09.158Z,94.09
2017-11-28T23:46:44.190Z,94.28
2017-11-28T23:49:18.869Z,94.29
2017-11-28T23:51:53.491Z,94.34
2017-11-28T23:54:28.700Z,94.39
2017-11-28T23:57:03.316Z,94.52
2017-11-28T23:59:37.857Z,94.50
